Time;durP1;ratioP1;P1;durP2;ratioP2;P2;SDS_P1;SDS_P2;PMS_P1;PMS_P2;Temp;Humidity;BMP_temperature;BMP_pressure;BME280_temperature;BME280_humidity;BME280_pressure;Samples;Min_cycle;Max_cycle;Signal;HPM_P1;HPM_P2
2024/02/22 00:00:31;;;;;;;59.90;54.23;;;;;;;5.24;100.00;99719.26;1832869;78;27502;-58
2024/02/22 00:03:03;;;;;;;65.30;58.97;;;;;;;5.48;100.00;99765.89;1666144;86;25575;-58
2024/02/22 00:05:30;;;;;;;46.87;43.23;;;;;;;3.96;100.00;99485.00;1666162;86;25598;-60
2024/02/22 00:07:56;;;;;;;6.97;6.67;;;;;;;5.35;100.00;99749.42;1666028;85;25604;-59
2024/02/22 00:10:22;;;;;;;8.83;8.43;;;;;;;;;;1666066;86;25499;-58
2024/02/22 00:12:48;;;;;;;9.30;8.80;;;;;;;;;;1666046;86;27588;-59
2024/02/22 00:15:17;;;;;;;24.67;10.85;;;;;;;;;;1666005;86;25569;-59
2024/02/22 00:17:47;;;;;;;34.45;18.17;;;;;;;;;;1666224;84;25435;-59
2024/02/22 00:20:18;;;;;;;36.38;18.65;;;;;;;;;;1666117;86;25625;-59
2024/02/22 00:22:45;;;;;;;37.55;18.48;;;;;;;;;;1666145;86;25530;-59
2024/02/22 00:25:13;;;;;;;37.88;18.82;;;;;;;;;;1666080;86;27624;-59
2024/02/22 00:27:41;;;;;;;35.30;17.65;;;;;;;;;;1665992;86;25414;-58
2024/02/22 00:30:14;;;;;;;30.50;16.35;;;;;;;;;;1666046;85;25591;-59
2024/02/22 00:32:49;;;;;;;33.98;16.90;;;;;;;;;;1666055;86;25622;-59
2024/02/22 00:35:17;;;;;;;34.33;15.78;;;;;;;;;;1628476;87;25471;-59
2024/02/22 00:37:43;;;;;;;33.95;16.17;;;;;;;;;;1628311;86;27588;-58
2024/02/22 00:40:15;;;;;;;31.35;15.70;;;;;;;;;;1628277;88;25472;-56
2024/02/22 00:42:43;;;;;;;32.28;14.95;;;;;;;;;;1628289;88;25621;-60
2024/02/22 00:45:12;;;;;;;30.75;16.23;;;;;;;;;;1628328;88;25443;-59
2024/02/22 00:47:45;;;;;;;34.58;15.40;;;;;;;;;;1628437;88;25634;-59
2024/02/22 00:50:11;;;;;;;35.68;16.20;;;;;;;;;;1628428;88;27695;-60
2024/02/22 00:52:38;;;;;;;29.52;15.30;;;;;;;;;;1628288;88;25705;-59
2024/02/22 00:55:06;;;;;;;31.62;15.95;;;;;;;;;;1628373;88;29758;-58
2024/02/22 00:57:32;;;;;;;35.33;16.82;;;;;;;;;;1628320;86;25773;-60
2024/02/22 00:59:58;;;;;;;40.73;15.20;;;;;;;;;;1628408;88;32803;-60
2024/02/22 01:02:26;;;;;;;36.20;15.53;;;;;;;;;;1628302;88;27504;-58
2024/02/22 01:04:59;;;;;;;37.60;15.90;;;;;;;;;;1658368;82;25637;-59
2024/02/22 01:07:26;;;;;;;32.83;15.58;;;;;;;;;;1657066;86;25650;-58
2024/02/22 01:09:52;;;;;;;31.90;15.65;;;;;;;;;;1657024;86;25589;-58
2024/02/22 01:12:18;;;;;;;33.85;16.17;;;;;;;;;;1657038;86;25501;-60
2024/02/22 01:14:44;;;;;;;34.18;17.48;;;;;;;;;;1657100;86;27595;-60
2024/02/22 01:17:11;;;;;;;38.17;19.35;;;;;;;;;;1656414;86;25657;-58
2024/02/22 01:19:38;;;;;;;39.25;18.07;;;;;;;;;;1656026;86;25416;-59
2024/02/22 01:22:05;;;;;;;40.88;18.67;;;;;;;;;;1656672;86;25865;-58
2024/02/22 01:24:33;;;;;;;36.80;17.92;;;;;;;;;;1660179;83;25840;-53
2024/02/22 01:27:01;;;;;;;39.00;19.30;;;;;;;;;;1724527;82;27546;-54
2024/02/22 01:29:27;;;;;;;34.13;17.85;;;;;;;;;;1724490;83;25521;-56
2024/02/22 01:31:55;;;;;;;42.70;18.57;;;;;;;;;;1724601;82;30015;-57
2024/02/22 01:34:21;;;;;;;36.28;18.98;;;;;;;;;;1724630;83;25396;-57
2024/02/22 01:36:49;;;;;;;33.55;18.42;;;;;;;;;;1724702;82;25191;-54
2024/02/22 01:39:18;;;;;;;40.12;19.00;;;;;;;;;;1724636;82;27705;-55
2024/02/22 01:41:46;;;;;;;37.03;18.33;;;;;;;;;;1724765;81;25566;-57
2024/02/22 01:44:14;;;;;;;36.65;18.62;;;;;;;;;;1724633;82;25539;-55
2024/02/22 01:46:42;;;;;;;34.92;18.50;;;;;;;;;;1706168;83;25574;-56
2024/02/22 01:49:11;;;;;;;39.05;18.35;;;;;;;;;;1724844;83;25662;-54
2024/02/22 01:51:39;;;;;;;37.55;19.12;;;;;;;;;;1724671;83;27548;-55
2024/02/22 01:54:06;;;;;;;32.17;18.25;;;;;;;;;;1724549;82;25564;-56
2024/02/22 01:56:33;;;;;;;34.13;18.75;;;;;;;;;;1724600;82;25602;-55
2024/02/22 01:59:01;;;;;;;35.10;18.70;;;;;;;;;;1724539;82;25876;-56
2024/02/22 02:01:28;;;;;;;34.18;18.32;;;;;;;;;;1724606;82;25586;-52
2024/02/22 02:03:57;;;;;;;39.58;17.42;;;;;;;;;;1731471;81;28033;-54
2024/02/22 02:06:26;;;;;;;38.37;17.77;;;;;;;;;;1783490;80;25603;-56
2024/02/22 02:08:52;;;;;;;31.17;16.85;;;;;;;;;;1783243;80;25461;-56
2024/02/22 02:11:18;;;;;;;33.67;17.12;;;;;;;;;;1783164;80;25495;-56
2024/02/22 02:13:48;;;;;;;40.60;18.40;;;;;;;;;;1741105;81;25613;-57
2024/02/22 02:16:14;;;;;;;31.87;16.32;;;;;;;;;;1741034;82;29628;-57
2024/02/22 02:18:41;;;;;;;35.15;16.62;;;;;;;;;;1741045;81;25586;-55
2024/02/22 02:21:26;;;;;;;32.35;17.20;;;;;;;;;;1783319;80;25751;-53
2024/02/22 02:24:22;;;;;;;39.80;17.52;;;;;;;;;;1770668;80;25919;-57
2024/02/22 02:26:51;;;;;;;31.65;16.17;;;;;;;;;;1783379;80;25540;-54
2024/02/22 02:29:17;;;;;;;32.98;16.57;;;;;;;;;;1783201;80;27251;-54
2024/02/22 02:31:45;;;;;;;38.20;17.37;;;;;;;;;;1783069;80;25531;-53
2024/02/22 02:34:13;;;;;;;26.57;16.35;;;;;;;;;;1783428;80;25187;-53
2024/02/22 02:36:43;;;;;;;28.05;15.95;;;;;;;;;;1783301;80;26490;-54
2024/02/22 02:39:12;;;;;;;;;;;;;;;;;;1785933;80;25398;-56
2024/02/22 02:41:40;;;;;;;35.25;16.32;;;;;;;;;;1783331;80;26972;-54
2024/02/22 02:44:08;;;;;;;33.90;17.05;;;;;;;;;;1740871;81;25835;-55
2024/02/22 02:46:34;;;;;;;31.65;15.98;;;;;;;;;;1783165;80;29632;-55
2024/02/22 02:49:03;;;;;;;27.35;15.60;;;;;;;;;;1783198;79;25575;-54
2024/02/22 02:51:32;;;;;;;33.48;16.32;;;;;;;;;;1783334;80;25434;-52
2024/02/22 02:53:59;;;;;;;29.18;15.75;;;;;;;;;;1783277;80;27528;-56
2024/02/22 02:56:25;;;;;;;33.02;16.62;;;;;;;;;;1783069;80;25436;-55
2024/02/22 02:58:51;;;;;;;30.77;16.27;;;;;;;;;;1783139;80;25277;-54
2024/02/22 03:01:17;;;;;;;28.87;16.12;;;;;;;;;;1783140;80;25599;-56
2024/02/22 03:03:47;;;;;;;33.23;15.45;;;;;;;;;;1783093;80;25558;-56
2024/02/22 03:06:14;;;;;;;30.65;16.00;;;;;;;;;;1783303;80;28599;-54
2024/02/22 03:08:42;;;;;;;35.13;15.65;;;;;;;;;;1783102;79;25582;-57
2024/02/22 03:11:10;;;;;;;33.23;14.53;;;;;;;;;;1709858;83;25585;-56
2024/02/22 03:13:37;;;;;;;26.93;13.83;;;;;;;;;;1783183;80;25581;-57
2024/02/22 03:16:08;;;;;;;27.90;12.80;;;;;;;;;;1783252;80;25545;-57
2024/02/22 03:18:40;;;;;;;29.65;13.68;;;;;;;;;;1783136;80;27770;-51
2024/02/22 03:21:10;;;;;;;26.68;12.47;;;;;;;;;;1740996;82;25536;-52
2024/02/22 03:23:39;;;;;;;26.95;12.55;;;;;;;;;;1783190;80;25634;-56
2024/02/22 03:26:10;;;;;;;28.60;12.47;;;;;;;;;;1783261;80;26229;-56
2024/02/22 03:28:36;;;;;;;24.27;12.13;;;;;;;;;;1783162;80;25614;-52
2024/02/22 03:31:07;;;;;;;29.12;12.43;;;;;;;;;;1783170;79;28211;-53
2024/02/22 03:33:33;;;;;;;27.48;12.63;;;;;;;;;;1741189;82;25602;-55
2024/02/22 03:36:04;;;;;;;21.25;12.65;;;;;;;;;;1741269;82;29326;-55
2024/02/22 03:38:33;;;;;;;29.42;12.28;;;;;;;;;;1741159;81;25665;-57
2024/02/22 03:41:08;;;;;;;26.05;12.10;;;;;;;;;;1783463;80;25523;-56
2024/02/22 03:43:40;;;;;;;25.43;12.05;;;;;;;;;;1783398;80;27473;-55
2024/02/22 03:46:10;;;;;;;28.75;12.35;;;;;;;;;;1783336;80;25632;-53
2024/02/22 03:48:41;;;;;;;29.48;13.88;;;;;;;;;;1783302;80;25514;-55
2024/02/22 03:51:11;;;;;;;31.50;13.20;;;;;;;;;;1782133;80;26063;-53
2024/02/22 03:53:44;;;;;;;37.58;13.62;;;;;;;;;;1783415;80;25457;-56
2024/02/22 03:56:15;;;;;;;25.85;13.05;;;;;;;;;;1782939;78;27815;-53
2024/02/22 03:58:41;;;;;;;23.85;12.68;;;;;;;;;;1783213;80;25512;-55
2024/02/22 04:01:10;;;;;;;23.80;11.63;;;;;;;;;;1783211;79;25572;-55
2024/02/22 04:03:37;;;;;;;24.60;12.43;;;;;;;;;;1782336;80;25577;-56
2024/02/22 04:06:08;;;;;;;24.87;11.40;;;;;;;;;;1730291;82;32689;-56
2024/02/22 04:08:38;;;;;;;26.95;12.03;;;;;;;;;;1677957;85;27487;-56
2024/02/22 04:11:12;;;;;;;27.37;12.43;;;;;;;;;;1729859;82;25456;-56
2024/02/22 04:13:41;;;;;;;30.48;14.07;;;;;;;;;;1730336;82;25564;-54
2024/02/22 04:16:07;;;;;;;23.00;13.20;;;;;;;;;;1677990;85;25613;-53
2024/02/22 04:18:33;;;;;;;32.60;13.98;;;;;;;;;;1730352;82;25375;-55
2024/02/22 04:21:07;;;;;;;26.75;12.90;;;;;;;;;;1730351;82;27642;-55
2024/02/22 04:23:33;;;;;;;37.93;14.90;;;;;;;;;;1678020;85;25610;-54
2024/02/22 04:25:59;;;;;;;27.32;14.20;;;;;;;;;;1730398;82;25478;-56
2024/02/22 04:28:25;;;;;;;35.28;13.93;;;;;;;;;;1730255;82;35154;-57
2024/02/22 04:30:53;;;;;;;23.67;12.68;;;;;;;;;;1730381;82;25572;-57
2024/02/22 04:33:20;;;;;;;30.92;14.43;;;;;;;;;;1730248;82;27611;-54
2024/02/22 04:35:48;;;;;;;25.92;13.13;;;;;;;;;;1730311;81;25594;-53
2024/02/22 04:38:15;;;;;;;24.85;13.62;;;;;;;;;;1678022;85;25419;-52
2024/02/22 04:40:41;;;;;;;26.33;13.45;;;;;;;;;;1730238;82;25574;-55
2024/02/22 04:43:09;;;;;;;28.15;13.25;;;;;;;;;;1730351;82;25606;-52
2024/02/22 04:45:40;;;;;;;24.43;12.33;;;;;;;;;;1729737;82;28123;-53
2024/02/22 04:48:09;;;;;;;23.90;12.30;;;;;;;;;;1730287;82;25564;-52
2024/02/22 04:50:36;;;;;;;25.92;13.40;;;;;;;;;;1730434;82;25816;-55
2024/02/22 04:53:05;;;;;;;33.38;13.25;;;;;;;;;;1730392;82;25623;-56
2024/02/22 04:55:33;;;;;;;28.50;14.00;;;;;;;;;;1730509;82;32155;-56
2024/02/22 04:58:04;;;;;;;30.75;13.98;;;;;;;;;;1730288;82;27956;-51
2024/02/22 05:00:34;;;;;;;31.65;13.58;;;;;;;;;;1728727;82;25585;-53
2024/02/22 05:03:05;;;;;;;27.27;14.73;;;;;;;;;;1730326;82;25391;-52
2024/02/22 05:05:31;;;;;;;19.50;9.43;;;;;;;;;;1761395;79;26050;-56
2024/02/22 05:07:58;;;;;;;33.18;14.30;;;;;;;;;;1776918;80;25534;-53
2024/02/22 05:10:23;;;;;;;32.78;15.18;;;;;;;;;;1776902;80;28187;-54
2024/02/22 05:12:49;;;;;;;28.40;15.20;;;;;;;;;;1776772;80;33102;-56
2024/02/22 05:15:16;;;;;;;28.32;14.58;;;;;;;;;;1776951;80;25531;-56
2024/02/22 05:17:42;;;;;;;26.35;13.53;;;;;;;;;;1776847;80;25501;-56
2024/02/22 05:20:08;;;;;;;32.17;15.08;;;;;;;;;;1776864;80;25885;-56
2024/02/22 05:22:34;;;;;;;31.20;14.18;;;;;;;;;;1776883;79;27476;-57
2024/02/22 05:25:00;;;;;;;26.95;14.13;;;;;;;;;;1776766;80;32717;-56
2024/02/22 05:27:26;;;;;;;29.25;14.43;;;;;;;;;;1776881;80;29276;-56
2024/02/22 05:29:52;;;;;;;27.93;17.10;;;;;;;;;;1776812;80;26146;-56
2024/02/22 05:32:18;;;;;;;32.38;14.23;;;;;;;;;;1776775;80;32583;-56
2024/02/22 05:34:44;;;;;;;34.63;15.83;;;;;;;;;;1776836;79;27503;-53
2024/02/22 05:37:11;;;;;;;33.15;16.52;;;;;;;;;;1776730;80;32732;-52
2024/02/22 05:39:38;;;;;;;37.80;15.32;;;;;;;;;;1776939;80;25188;-54
2024/02/22 05:42:06;;;;;;;25.80;14.18;;;;;;;;;;1776924;80;34750;-56
2024/02/22 05:44:32;;;;;;;33.30;14.87;;;;;;;;;;1777050;80;25630;-56
2024/02/22 05:46:58;;;;;;;38.05;16.17;;;;;;;;;;1776753;80;28050;-55
2024/02/22 05:49:24;;;;;;;32.10;16.25;;;;;;;;;;1776682;80;32795;-57
2024/02/22 05:51:50;;;;;;;34.00;16.02;;;;;;;;;;1776834;80;29540;-56
2024/02/22 05:54:18;;;;;;;30.23;14.68;;;;;;;;;;1774991;79;25764;-52
2024/02/22 05:56:46;;;;;;;30.43;15.25;;;;;;;;;;1776951;80;25400;-55
2024/02/22 05:59:12;;;;;;;32.55;14.78;;;;;;;;;;1776736;80;27485;-53
2024/02/22 06:01:38;;;;;;;30.68;16.07;;;;;;;;;;1776714;80;32654;-54
2024/02/22 06:04:04;;;;;;;31.73;15.80;;;;;;;;;;1776774;79;29995;-55
2024/02/22 06:06:30;;;;;;;29.35;16.07;;;;;;;;;;1776607;80;25481;-57
2024/02/22 06:08:56;;;;;;;36.88;17.12;;;;;;;;;;1776853;80;25394;-55
2024/02/22 06:11:24;;;;;;;32.15;15.58;;;;;;;;;;1776689;80;28039;-57
2024/02/22 06:13:52;;;;;;;28.65;15.13;;;;;;;;;;1776700;79;32727;-57
2024/02/22 06:16:20;;;;;;;30.05;15.68;;;;;;;;;;1774994;80;25558;-53
2024/02/22 06:18:46;;;;;;;26.62;14.83;;;;;;;;;;1776726;80;26148;-56
2024/02/22 06:21:12;;;;;;;33.60;15.60;;;;;;;;;;1776816;80;32732;-54
2024/02/22 06:23:39;;;;;;;31.65;15.75;;;;;;;;;;1776771;80;27541;-56
2024/02/22 06:26:06;;;;;;;33.65;14.60;;;;;;;;;;1776556;80;27202;-57
2024/02/22 06:28:33;;;;;;;27.05;13.10;;;;;;;;;;1776736;80;25501;-56
2024/02/22 06:31:01;;;;;;;28.85;15.28;;;;;;;;;;1776708;80;26070;-57
2024/02/22 06:33:33;;;;;;;28.12;14.55;;;;;;;;;;1776869;80;25451;-56
2024/02/22 06:36:00;;;;;;;31.42;13.18;;;;;;;;;;1776759;80;28044;-54
2024/02/22 06:38:26;;;;;;;25.50;14.00;;;;;;;;;;1776727;80;32778;-56
2024/02/22 06:40:54;;;;;;;33.38;16.32;;;;;;;;;;1776707;80;25498;-56
2024/02/22 06:43:20;;;;;;;30.55;14.80;;;;;;;;;;1776844;80;26089;-55
2024/02/22 06:45:50;;;;;;;29.15;12.93;;;;;;;;;;1776884;79;25457;-56
2024/02/22 06:48:16;;;;;;;32.05;14.28;;;;;;;;;;1776740;80;27521;-56
2024/02/22 06:50:42;;;;;;;26.68;13.98;;;;;;;;;;1776757;80;32922;-56
2024/02/22 06:53:11;;;;;;;32.38;15.55;;;;;;;;;;1776907;80;29680;-57
2024/02/22 06:55:40;;;;;;;31.10;14.58;;;;;;;;;;1776927;80;26564;-55
2024/02/22 06:58:06;;;;;;;27.13;14.05;;;;;;;;;;1776899;80;25604;-55
2024/02/22 07:00:34;;;;;;;28.00;14.07;;;;;;;;;;1776917;79;27451;-56
2024/02/22 07:03:02;;;;;;;29.50;14.40;;;;;;;;;;1776876;80;25430;-57
2024/02/22 07:05:29;;;;;;;32.53;14.30;;;;;;;;;;1776558;79;27348;-57
2024/02/22 07:07:56;;;;;;;27.35;13.15;;;;;;;;;;1777028;80;26182;-57
2024/02/22 07:10:22;;;;;;;25.65;13.48;;;;;;;;;;1777203;79;33169;-56
2024/02/22 07:12:48;;;;;;;28.07;14.30;;;;;;;;;;1680827;84;28603;-57
2024/02/22 07:15:21;;;;;;;29.90;13.55;;;;;;;;;;1722163;83;32794;-54
2024/02/22 07:17:50;;;;;;;26.42;12.65;;;;;;;;;;1722171;83;25566;-57
2024/02/22 07:20:19;;;;;;;;;;;;;;;;;;1724589;83;26194;-55
2024/02/22 07:22:47;;;;;;;18.52;11.00;;;;;;;;;;1722350;83;25559;-53
2024/02/22 07:25:14;;;;;;;28.87;11.03;;;;;;;;;;1722163;83;27689;-55
2024/02/22 07:27:41;;;;;;;19.92;11.30;;;;;;;;;;1722206;83;25476;-56
2024/02/22 07:30:13;;;;;;;26.77;11.45;;;;;;;;;;1722136;83;25622;-56
2024/02/22 07:32:39;;;;;;;17.67;10.58;;;;;;;;;;1722140;83;25652;-55
2024/02/22 07:35:10;;;;;;;19.70;10.68;;;;;;;;;;1722185;83;25638;-56
2024/02/22 07:37:44;;;;;;;24.90;10.25;;;;;;;;;;1721757;83;27439;-58
2024/02/22 07:40:14;;;;;;;39.50;35.25;;;;;;;;;;1722079;83;25419;-59
2024/02/22 07:42:40;;;;;;;88.65;81.22;;;;;;;;;;1722124;83;25746;-59
2024/02/22 07:45:11;;;;;;;88.37;81.10;;;;;;;;;;1722100;83;25561;-60
2024/02/22 07:47:37;;;;;;;90.05;83.12;;;;;;;;;;1722323;83;33056;-58
2024/02/22 07:50:10;;;;;;;85.43;78.83;;;;;;;;;;1722093;83;27517;-58
2024/02/22 07:52:44;;;;;;;87.92;80.97;;;;;;;;;;1721997;83;25851;-57
2024/02/22 07:55:11;;;;;;;15.32;8.03;;;;;;;;;;1722157;83;25578;-58
2024/02/22 07:57:38;;;;;;;15.83;8.18;;;;;;;;;;1722161;83;25599;-59
2024/02/22 08:00:16;;;;;;;63.55;58.20;;;;;;;;;;1722134;83;25665;-59
2024/02/22 08:02:42;;;;;;;83.20;76.53;;;;;;;;;;1722144;83;27499;-59
2024/02/22 08:05:09;;;;;;;16.57;9.25;;;;;;;;;;1724417;82;32999;-59
2024/02/22 08:07:39;;;;;;;14.47;8.98;;;;;;;;;;1740992;82;25428;-59
2024/02/22 08:10:12;;;;;;;18.40;9.28;;;;;;;;;;1740967;82;25643;-58
2024/02/22 08:12:38;;;;;;;18.17;8.88;;;;;;;;;;1740977;82;25444;-60
2024/02/22 08:15:09;;;;;;;15.05;9.00;;;;;;;;;;1740861;82;27574;-60
2024/02/22 08:17:37;;;;;;;17.05;8.75;;;;;;;;;;1740966;82;25560;-59
2024/02/22 08:20:11;;;;;;;15.28;8.15;;;;;;;;;;1783067;80;25645;-59
2024/02/22 08:22:37;;;;;;;15.35;8.48;;;;;;;;;;1782924;80;25644;-59
2024/02/22 08:25:10;;;;;;;16.67;8.60;;;;;;;;;;1783232;80;25692;-58
2024/02/22 08:27:43;;;;;;;15.93;8.30;;;;;;;;;;1741106;82;27448;-58
2024/02/22 08:30:16;;;;;;;16.82;8.88;;;;;;;;;;1783256;80;25885;-59
2024/02/22 08:32:41;;;;;;;15.32;8.70;;;;;;;;;;1783365;80;25543;-59
2024/02/22 08:35:11;;;;;;;14.18;8.58;;;;;;;;;;1783286;80;34725;-59
2024/02/22 08:37:37;;;;;;;14.60;8.68;;;;;;;;;;1783371;79;25562;-59
2024/02/22 08:40:12;;;;;;;13.13;8.35;;;;;;;;;;1783302;80;27720;-60
2024/02/22 08:42:40;;;;;;;14.18;8.58;;;;;;;;;;1783156;80;27123;-59
2024/02/22 08:45:14;;;;;;;12.55;8.00;;;;;;;;;;1783182;80;25592;-58
2024/02/22 08:47:37;;;;;;;12.60;7.35;;;;;;;;;;1782468;79;25563;-59
2024/02/22 08:50:15;;;;;;;13.45;7.65;;;;;;;;;;1783308;79;25618;-60
2024/02/22 08:52:41;;;;;;;14.45;8.18;;;;;;;;;;1783202;80;28269;-59
2024/02/22 08:55:12;;;;;;;13.88;7.30;;;;;;;;;;1783120;80;25539;-61
2024/02/22 08:57:42;;;;;;;14.50;8.45;;;;;;;;;;1780212;80;25615;-59
2024/02/22 09:00:19;;;;;;;14.85;7.83;;;;;;;;;;1783165;80;26275;-60
2024/02/22 09:02:52;;;;;;;17.17;7.62;;;;;;;;;;1741140;82;25591;-58
2024/02/22 09:05:19;;;;;;;12.85;7.45;;;;;;;;;;1782683;80;28422;-60
2024/02/22 09:07:49;;;;;;;14.80;8.23;;;;;;;;;;1776751;80;25427;-61
2024/02/22 09:10:20;;;;;;;14.45;7.03;;;;;;;;;;1725616;82;25416;-59
2024/02/22 09:12:48;;;;;;;11.95;6.90;;;;;;;;;;1724582;83;25550;-60
2024/02/22 09:15:16;;;;;;;15.90;7.42;;;;;;;;;;1724653;82;25543;-60
2024/02/22 09:17:44;;;;;;;12.80;6.60;;;;;;;;;;1724482;82;27890;-60
2024/02/22 09:20:18;;;;;;;10.45;6.58;;;;;;;;;;1690726;84;25622;-59
2024/02/22 09:22:42;;;;;;;14.68;6.60;;;;;;;;;;1688410;84;25569;-60
2024/02/22 09:25:11;;;;;;;11.70;6.37;;;;;;;;;;1690883;84;25523;-62
2024/02/22 09:27:42;;;;;;;11.00;6.80;;;;;;;;;;1691020;84;25612;-62
2024/02/22 09:30:14;;;;;;;80.83;75.12;;;;;;;;;;1690813;84;27504;-59
2024/02/22 09:32:43;;;;;;;14.45;7.37;;;;;;;;;;1690756;84;25768;-62
2024/02/22 09:35:13;;;;;;;11.88;6.37;;;;;;;;;;1687331;84;25589;-62
2024/02/22 09:37:42;;;;;;;12.43;6.22;;;;;;;;;;1690739;84;25670;-61
2024/02/22 09:40:15;;;;;;;11.35;6.55;;;;;;;;;;1690842;84;25698;-62
2024/02/22 09:42:45;;;;;;;13.05;6.15;;;;;;;;;;1690802;84;27665;-61
2024/02/22 09:45:11;;;;;;;13.20;6.75;;;;;;;;;;1690788;84;25590;-60
2024/02/22 09:47:37;;;;;;;13.48;6.28;;;;;;;;;;1690803;84;25441;-59
2024/02/22 09:50:10;;;;;;;11.57;6.08;;;;;;;;;;1690930;83;25527;-59
2024/02/22 09:52:38;;;;;;;15.32;6.50;;;;;;;;;;1724556;83;25406;-59
2024/02/22 09:55:12;;;;;;;10.60;6.50;;;;;;;;;;1724601;83;28118;-59
2024/02/22 09:57:40;;;;;;;13.15;6.12;;;;;;;;;;1724455;83;25598;-59
2024/02/22 10:00:15;;;;;;;12.93;5.83;;;;;;;;;;1724560;82;25561;-61
2024/02/22 10:02:46;;;;;;;11.68;6.55;;;;;;;;;;1724628;83;25951;-60
2024/02/22 10:05:12;;;;;;;12.25;6.45;;;;;;;;;;1724524;83;25610;-60
2024/02/22 10:07:39;;;;;;;11.60;6.17;;;;;;;;;;1724498;83;29705;-61
2024/02/22 10:10:13;;;;;;;10.00;5.53;;;;;;;;;;1724597;82;25547;-60
2024/02/22 10:12:43;;;;;;;10.58;6.40;;;;;;;;;;1724487;83;25400;-59
2024/02/22 10:15:25;;;;;;;13.08;6.92;;;;;;;;;;1722743;81;25790;-60
2024/02/22 10:17:48;;;;;;;12.13;6.58;;;;;;;;;;1719689;82;25402;-61
2024/02/22 10:20:18;;;;;;;9.05;6.40;;;;;;;;;;1724512;83;27547;-61
2024/02/22 10:22:46;;;;;;;11.73;6.85;;;;;;;;;;1724493;82;25946;-61
2024/02/22 10:25:16;;;;;;;13.05;6.53;;;;;;;;;;1724653;83;25669;-61
2024/02/22 10:27:49;;;;;;;10.18;6.12;;;;;;;;;;1724598;82;26124;-61
2024/02/22 10:30:20;;;;;;;11.40;6.53;;;;;;;;;;1719812;82;25588;-61
2024/02/22 10:32:48;;;;;;;12.98;6.55;;;;;;;;;;1724569;83;27480;-61
2024/02/22 10:35:19;;;;;;;10.48;5.90;;;;;;;;;;1724491;82;25618;-60
2024/02/22 10:37:50;;;;;;;10.10;5.45;;;;;;;;;;1724502;82;25652;-60
2024/02/22 10:40:18;;;;;;;13.43;6.87;;;;;;;;;;1724479;81;25569;-61
2024/02/22 10:42:51;;;;;;;8.85;6.10;;;;;;;;;;1724652;83;25544;-61
2024/02/22 10:45:18;;;;;;;13.70;7.03;;;;;;;;;;1724565;83;27504;-61
2024/02/22 10:47:46;;;;;;;9.20;5.83;;;;;;;;;;1724371;82;32832;-60
2024/02/22 10:50:14;;;;;;;10.60;6.55;;;;;;;;;;1724425;83;25624;-62
2024/02/22 10:52:42;;;;;;;12.60;6.92;;;;;;;;;;1724302;82;25531;-63
2024/02/22 10:55:15;;;;;;;15.08;6.87;;;;;;;;;;1724612;82;25629;-62
2024/02/22 10:57:46;;;;;;;10.00;5.72;;;;;;;;;;1724605;82;27653;-69
2024/02/22 11:00:17;;;;;;;14.10;6.50;;;;;;;;;;1724419;82;25606;-68
2024/02/22 11:02:44;;;;;;;8.68;5.87;;;;;;;;;;1724439;83;25719;-70
2024/02/22 11:05:14;;;;;;;9.60;5.78;;;;;;;;;;1724377;82;25907;-69
2024/02/22 11:07:50;;;;;;;8.55;5.55;;;;;;;;;;1737758;81;25593;-69
2024/02/22 11:10:21;;;;;;;8.50;5.53;;;;;;;;;;1783214;80;27528;-68
2024/02/22 11:12:48;;;;;;;8.18;5.30;;;;;;;;;;1783130;80;25598;-63
2024/02/22 11:15:16;;;;;;;10.35;5.90;;;;;;;;;;1759086;80;25685;-64
2024/02/22 11:17:56;;;;;;;9.25;6.00;;;;;;;;;;1783202;80;25696;-64
2024/02/22 11:20:36;;;;;;;12.05;5.28;;;;;;;;;;1741043;81;25738;-64
2024/02/22 11:23:15;;;;;;;12.03;5.45;;;;;;;;;;1783123;80;27551;-64
2024/02/22 11:25:43;;;;;;;11.18;5.72;;;;;;;;;;1783249;79;25541;-65
2024/02/22 11:28:11;;;;;;;9.23;5.03;;;;;;;;;;1783113;80;25370;-64
2024/02/22 11:30:44;;;;;;;10.00;5.40;;;;;;;;;;1783225;80;26024;-62
2024/02/22 11:33:11;;;;;;;9.20;5.70;;;;;;;;;;1782150;80;25503;-63
2024/02/22 11:35:40;;;;;;;8.63;5.72;;;;;;;;;;1782986;79;27495;-62
2024/02/22 11:38:07;;;;;;;10.10;5.80;;;;;;;;;;1783080;79;25523;-63
2024/02/22 11:40:34;;;;;;;10.35;5.95;;;;;;;;;;1741017;81;25440;-64
2024/02/22 11:43:05;;;;;;;13.45;5.72;;;;;;;;;;1741065;82;25585;-62
2024/02/22 11:45:35;;;;;;;7.97;5.35;;;;;;;;;;1783220;80;25496;-63
2024/02/22 11:48:08;;;;;;;10.70;5.20;;;;;;;;;;1783201;79;29650;-64
2024/02/22 11:50:34;;;;;;;10.60;5.72;;;;;;;;;;1783134;80;25519;-64
2024/02/22 11:53:02;;;;;;;35.85;23.27;;;;;;;;;;1783216;79;25461;-63
2024/02/22 11:55:29;;;;;;;12.98;7.55;;;;;;;;;;1783230;80;25837;-61
2024/02/22 11:57:55;;;;;;;13.60;4.97;;;;;;;;;;1741216;82;25408;-63
2024/02/22 12:00:23;;;;;;;10.78;5.55;;;;;;;;;;1783265;80;28145;-63
2024/02/22 12:02:55;;;;;;;8.80;5.60;;;;;;;;;;1783181;80;26091;-62
2024/02/22 12:05:24;;;;;;;9.75;5.83;;;;;;;;;;1783397;79;25526;-63
2024/02/22 12:07:52;;;;;;;14.60;5.72;;;;;;;;;;1778318;79;25514;-63
2024/02/22 12:10:21;;;;;;;10.35;5.60;;;;;;;;;;1776867;80;25503;-63
2024/02/22 12:12:48;;;;;;;10.60;5.60;;;;;;;;;;1776995;80;27628;-64
2024/02/22 12:15:19;;;;;;;8.78;5.33;;;;;;;;;;1776828;80;32913;-64
2024/02/22 12:17:53;;;;;;;10.72;5.40;;;;;;;;;;1724667;83;25790;-64
2024/02/22 12:20:25;;;;;;;8.00;5.20;;;;;;;;;;1723754;81;25563;-63
2024/02/22 12:22:56;;;;;;;10.55;5.90;;;;;;;;;;1722729;82;25713;-64
2024/02/22 12:25:24;;;;;;;7.47;5.15;;;;;;;;;;1722814;83;27459;-63
2024/02/22 12:27:57;;;;;;;9.58;6.08;;;;;;;;;;1723061;83;25607;-64
2024/02/22 12:30:24;;;;;;;10.48;5.78;;;;;;;;;;1722950;83;25639;-64
2024/02/22 12:32:54;;;;;;;9.25;5.60;;;;;;;;;;1704530;83;25529;-63
2024/02/22 12:35:23;;;;;;;15.45;6.12;;;;;;;;;;1723232;83;25653;-65
2024/02/22 12:37:50;;;;;;;10.93;5.45;;;;;;;;;;1723077;83;27696;-64
2024/02/22 12:40:15;;;;;;;10.50;5.47;;;;;;;;;;1722983;83;25634;-65
2024/02/22 12:42:41;;;;;;;7.95;5.65;;;;;;;;;;1723056;82;29561;-63
2024/02/22 12:45:10;;;;;;;11.60;5.78;;;;;;;;;;1722957;83;34782;-64
2024/02/22 12:47:36;;;;;;;8.70;5.62;;;;;;;;;;1723093;83;25718;-65
2024/02/22 12:50:05;;;;;;;15.13;8.88;;;;;;;;;;1723027;83;27458;-62
2024/02/22 12:52:31;;;;;;;13.38;6.70;;;;;;;;;;1723065;83;25469;-63
2024/02/22 12:54:59;;;;;;;10.65;6.17;;;;;;;;;;1723107;83;25501;-63
2024/02/22 12:57:25;;;;;;;12.53;5.78;;;;;;;;;;1723113;83;26467;-65
2024/02/22 12:59:51;;;;;;;9.80;5.78;;;;;;;;;;1723158;83;25460;-65
2024/02/22 13:02:17;;;;;;;11.28;5.53;;;;;;;;;;1723146;82;28723;-65
2024/02/22 13:04:43;;;;;;;10.63;6.45;;;;;;;;;;1723061;82;33299;-64
2024/02/22 13:09:27;;;;;;;10.88;6.22;;;;;;;9.78;76.98;98953.72;1868332;76;34785;-64
2024/02/22 13:11:53;;;;;;;11.78;6.08;;;;;;;9.69;77.85;98943.80;1824544;78;25351;-66
2024/02/22 13:14:20;;;;;;;11.93;6.83;;;;;;;9.66;78.02;98949.86;1804048;78;27527;-66
2024/02/22 13:16:46;;;;;;;9.63;6.25;;;;;;;9.63;78.73;98954.58;1824469;78;25679;-62
2024/02/22 13:19:16;;;;;;;12.18;6.97;;;;;;;9.56;79.17;98957.62;1824438;78;25513;-65
2024/02/22 13:21:43;;;;;;;11.60;6.78;;;;;;;9.48;79.38;98949.83;1824462;78;25532;-61
2024/02/22 13:24:10;;;;;;;15.03;6.83;;;;;;;9.39;80.52;98958.59;1824548;78;25624;-62
2024/02/22 13:26:38;;;;;;;12.07;6.72;;;;;;;9.27;80.49;98942.58;1824462;78;27487;-65
2024/02/22 13:29:04;;;;;;;15.08;7.08;;;;;;;9.18;81.19;98939.73;1824398;78;25348;-61
2024/02/22 13:31:31;;;;;;;12.43;7.00;;;;;;;9.05;82.11;98927.55;1824680;78;25424;-61
2024/02/22 13:33:59;;;;;;;15.43;7.17;;;;;;;8.96;82.67;98919.55;1824616;78;25389;-61
2024/02/22 13:36:28;;;;;;;10.93;7.22;;;;;;;8.90;83.16;98913.34;1824659;78;25430;-61
2024/02/22 13:38:54;;;;;;;12.83;7.40;;;;;;;8.84;83.62;98910.06;1824887;78;27468;-59
2024/02/22 13:41:20;;;;;;;11.85;7.10;;;;;;;8.78;84.31;98905.98;1824636;78;25473;-61
2024/02/22 13:43:47;;;;;;;11.38;6.92;;;;;;;8.74;84.95;98903.16;1824611;78;25377;-61
2024/02/22 13:46:14;;;;;;;13.65;7.35;;;;;;;8.70;85.30;98894.70;1824563;78;25419;-61
2024/02/22 13:48:41;;;;;;;12.55;6.78;;;;;;;8.69;85.45;98889.11;1824685;78;25371;-63
2024/02/22 13:51:08;;;;;;;11.90;7.28;;;;;;;8.66;85.60;98888.41;1824629;78;28092;-62
2024/02/22 13:53:35;;;;;;;13.65;6.90;;;;;;;8.63;86.07;98880.41;1824529;78;25371;-60
2024/02/22 13:56:02;;;;;;;10.20;6.37;;;;;;;8.61;85.83;98879.96;1824646;78;25417;-59
2024/02/22 13:58:32;;;;;;;41.98;28.38;;;;;;;8.60;86.42;98871.09;1824572;78;25443;-57
2024/02/22 14:00:56;;;;;;;20.52;14.23;;;;;;;8.63;86.49;98864.81;1824505;78;25388;-56
2024/02/22 14:03:23;;;;;;;12.93;8.43;;;;;;;8.65;86.59;98866.61;1824676;78;27478;-61
2024/02/22 14:05:49;;;;;;;11.70;7.12;;;;;;;8.65;86.45;98866.61;1824116;78;25519;-61
2024/02/22 14:08:16;;;;;;;11.70;7.05;;;;;;;8.69;87.12;98866.19;1823856;78;25419;-60
2024/02/22 14:10:42;;;;;;;11.12;6.58;;;;;;;8.68;86.96;98856.52;1823879;78;25419;-60
2024/02/22 14:13:10;;;;;;;10.75;7.25;;;;;;;8.67;86.50;98859.00;1823764;78;25509;-62